Time;durP1;ratioP1;P1;durP2;ratioP2;P2;SDS_P1;SDS_P2;PMS_P1;PMS_P2;Temp;Humidity;BMP_temperature;BMP_pressure;BME280_temperature;BME280_humidity;BME280_pressure;Samples;Min_cycle;Max_cycle;Signal;HPM_P1;HPM_P2
2023/03/16 00:00:42;;;;;;;6.73;5.07;;;1.70;99.90;;;;;;5071401;28;20440;-77
2023/03/16 00:03:17;;;;;;;5.40;3.63;;;1.50;99.90;;;;;;5070906;28;20449;-76
2023/03/16 00:05:45;;;;;;;5.20;3.60;;;1.70;99.90;;;;;;5059347;28;20467;-76
2023/03/16 00:08:12;;;;;;;7.90;4.13;;;1.90;99.90;;;;;;5070286;28;20445;-76
2023/03/16 00:10:45;;;;;;;3.97;3.57;;;1.90;99.90;;;;;;5071691;28;20783;-76
2023/03/16 00:13:13;;;;;;;4.97;4.23;;;1.80;99.90;;;;;;5070358;28;20476;-76
2023/03/16 00:15:39;;;;;;;4.83;4.27;;;1.70;99.90;;;;;;5071598;28;21285;-76
2023/03/16 00:18:06;;;;;;;3.93;3.53;;;1.90;99.90;;;;;;5071029;28;20434;-76
2023/03/16 00:20:34;;;;;;;6.30;4.17;;;1.60;99.90;;;;;;5071858;28;20453;-77
2023/03/16 00:23:01;;;;;;;5.20;3.70;;;1.70;99.90;;;;;;5070964;28;20539;-77
2023/03/16 00:25:29;;;;;;;4.57;4.20;;;1.80;99.90;;;;;;5071479;28;20486;-76
2023/03/16 00:27:55;;;;;;;4.67;3.37;;;1.90;99.90;;;;;;5070774;28;20767;-76
2023/03/16 00:30:22;;;;;;;13.67;4.63;;;2.00;99.90;;;;;;5071016;28;20458;-76
2023/03/16 00:32:52;;;;;;;9.70;5.33;;;2.00;99.90;;;;;;5070802;28;20443;-73
2023/03/16 00:35:20;;;;;;;4.33;3.93;;;1.80;99.90;;;;;;5070813;28;20544;-74
2023/03/16 00:37:48;;;;;;;4.97;3.70;;;1.90;99.90;;;;;;5071286;28;20446;-76
2023/03/16 00:40:16;;;;;;;4.53;4.13;;;1.90;99.90;;;;;;5071054;28;20441;-76
2023/03/16 00:42:43;;;;;;;7.37;5.40;;;1.60;99.90;;;;;;5070692;28;20978;-76
2023/03/16 00:45:11;;;;;;;8.70;5.13;;;1.60;99.90;;;;;;5070200;28;20484;-76
2023/03/16 00:47:37;;;;;;;4.60;3.80;;;1.80;99.90;;;;;;5071386;28;20456;-76
2023/03/16 00:50:05;;;;;;;8.50;4.50;;;1.60;99.90;;;;;;5070330;28;20441;-76
2023/03/16 00:52:34;;;;;;;6.00;3.67;;;1.40;99.90;;;;;;5071037;28;20438;-76
2023/03/16 00:55:03;;;;;;;4.50;3.40;;;1.60;99.90;;;;;;5070566;28;20491;-76
2023/03/16 00:57:30;;;;;;;5.00;3.27;;;1.60;99.90;;;;;;5071012;28;20441;-77
2023/03/16 00:59:58;;;;;;;6.07;3.70;;;1.60;99.90;;;;;;5069920;28;20472;-76
2023/03/16 01:02:25;;;;;;;2.90;2.43;;;1.50;99.90;;;;;;5071171;28;20446;-76
2023/03/16 01:04:53;;;;;;;7.17;4.10;;;1.60;99.90;;;;;;5070580;28;20441;-76
2023/03/16 01:07:20;;;;;;;6.03;4.07;;;1.80;99.90;;;;;;5064710;28;20452;-74
2023/03/16 01:09:48;;;;;;;3.80;3.40;;;1.80;99.90;;;;;;5070776;28;20445;-76
2023/03/16 01:12:18;;;;;;;6.20;4.50;;;1.30;99.90;;;;;;5071171;28;20452;-76
2023/03/16 01:14:45;;;;;;;6.70;3.27;;;1.10;99.90;;;;;;5070937;28;20488;-76
2023/03/16 01:17:13;;;;;;;3.50;3.20;;;1.20;99.90;;;;;;5070429;28;20461;-77
2023/03/16 01:19:41;;;;;;;6.77;4.00;;;1.30;99.90;;;;;;5070414;28;20449;-76
2023/03/16 01:22:10;;;;;;;4.90;3.43;;;1.50;99.90;;;;;;5070454;28;20472;-76
2023/03/16 01:24:38;;;;;;;7.03;5.33;;;1.50;99.90;;;;;;5070960;28;20786;-76
2023/03/16 01:27:05;;;;;;;5.03;4.03;;;1.50;99.90;;;;;;5070062;28;20947;-76
2023/03/16 01:29:33;;;;;;;3.70;3.10;;;1.30;99.90;;;;;;5070195;28;20441;-76
2023/03/16 01:32:01;;;;;;;7.80;3.60;;;1.30;99.90;;;;;;5070194;28;20453;-76
2023/03/16 01:34:28;;;;;;;6.20;3.60;;;1.40;99.90;;;;;;5070675;28;20878;-76
2023/03/16 01:36:55;;;;;;;5.53;5.00;;;1.40;99.90;;;;;;5070146;28;20445;-76
2023/03/16 01:39:22;;;;;;;4.40;4.00;;;1.40;99.90;;;;;;5070286;28;20455;-76
2023/03/16 01:41:49;;;;;;;4.73;4.23;;;1.10;99.90;;;;;;5070602;28;20449;-72
2023/03/16 01:44:21;;;;;;;5.03;3.50;;;1.10;99.90;;;;;;5070705;28;20452;-76
2023/03/16 01:46:49;;;;;;;7.07;2.90;;;1.00;99.90;;;;;;5073503;28;20503;-77
2023/03/16 01:49:20;;;;;;;3.57;3.27;;;1.30;99.90;;;;;;5074040;28;20441;-76
2023/03/16 01:51:50;;;;;;;5.83;4.23;;;1.20;99.90;;;;;;5074788;28;20506;-76
2023/03/16 01:54:23;;;;;;;5.40;4.07;;;1.10;99.90;;;;;;5073909;28;20950;-76
2023/03/16 01:56:57;;;;;;;4.47;3.87;;;1.20;99.90;;;;;;5073809;28;20541;-75
2023/03/16 01:59:29;;;;;;;8.97;4.87;;;1.10;99.90;;;;;;5073673;28;20443;-76
2023/03/16 02:01:57;;;;;;;5.80;3.80;;;1.20;99.90;;;;;;5073516;28;20435;-76
2023/03/16 02:04:35;;;;;;;10.00;5.00;;;1.00;99.90;;;;;;5073948;28;20444;-76
2023/03/16 02:07:03;;;;;;;6.03;4.63;;;1.10;99.90;;;;;;5073380;28;20439;-77
2023/03/16 02:09:31;;;;;;;4.20;3.80;;;1.40;99.90;;;;;;5073581;28;20441;-77
2023/03/16 02:11:58;;;;;;;6.30;5.00;;;1.40;99.90;;;;;;5072917;28;20950;-78
2023/03/16 02:14:25;;;;;;;6.83;4.27;;;1.40;99.90;;;;;;5073374;28;20481;-76
2023/03/16 02:16:52;;;;;;;4.20;3.83;;;1.30;99.90;;;;;;5073153;28;20441;-76
2023/03/16 02:19:31;;;;;;;6.13;5.23;;;1.30;99.90;;;;;;5073545;28;20441;-75
2023/03/16 02:22:02;;;;;;;7.07;5.10;;;1.40;99.90;;;;;;5073159;28;20437;-76
2023/03/16 02:24:30;;;;;;;13.43;5.40;;;1.60;99.90;;;;;;5073450;28;20444;-76
2023/03/16 02:27:00;;;;;;;8.93;5.27;;;1.90;99.90;;;;;;5073153;28;20809;-76
2023/03/16 02:29:55;;;;;;;9.73;6.97;;;1.50;99.90;;;;;;5073251;28;20453;-76
2023/03/16 02:32:25;;;;;;;6.20;4.80;;;1.30;99.90;;;;;;5073775;28;20436;-76
2023/03/16 02:34:52;;;;;;;4.50;3.47;;;1.40;99.90;;;;;;5059482;28;20481;-76
2023/03/16 02:37:19;;;;;;;10.10;4.47;;;1.40;99.90;;;;;;5073487;28;20777;-76
2023/03/16 02:39:45;;;;;;;7.33;5.90;;;1.40;99.90;;;;;;5073182;28;20441;-76
2023/03/16 02:42:15;;;;;;;6.67;4.80;;;1.40;99.90;;;;;;5072654;28;20437;-76
2023/03/16 02:44:45;;;;;;;6.70;4.40;;;1.30;99.90;;;;;;5073468;28;20444;-77
2023/03/16 02:47:24;;;;;;;7.30;4.00;;;1.30;99.90;;;;;;5072594;28;20430;-77
2023/03/16 02:49:50;;;;;;;5.43;4.40;;;1.30;99.90;;;;;;5072027;28;20433;-76
2023/03/16 02:52:17;;;;;;;6.77;6.07;;;1.20;99.90;;;;;;5072974;28;20452;-77
2023/03/16 02:54:44;;;;;;;10.67;5.17;;;1.10;99.90;;;;;;5072837;28;20480;-77
2023/03/16 02:57:11;;;;;;;10.13;6.10;;;1.10;99.90;;;;;;5072284;28;20463;-76
2023/03/16 02:59:38;;;;;;;6.30;5.43;;;1.20;99.90;;;;;;5072451;28;20440;-75
2023/03/16 03:02:05;;;;;;;5.87;4.80;;;1.10;99.90;;;;;;5072213;28;20551;-76
2023/03/16 03:04:33;;;;;;;5.67;4.53;;;1.10;99.90;;;;;;5072752;28;20788;-77
2023/03/16 03:07:03;;;;;;;5.73;5.07;;;1.40;99.90;;;;;;5071888;28;20796;-76
2023/03/16 03:09:31;;;;;;;3.87;3.47;;;1.30;99.90;;;;;;5071968;28;20472;-76
2023/03/16 03:11:58;;;;;;;7.17;4.93;;;1.10;99.90;;;;;;5072023;28;20445;-76
2023/03/16 03:14:27;;;;;;;9.17;6.17;;;1.30;99.90;;;;;;5072275;28;20481;-76
2023/03/16 03:16:54;;;;;;;8.80;5.53;;;1.20;99.90;;;;;;5071937;28;20445;-76
2023/03/16 03:19:21;;;;;;;4.97;4.47;;;1.10;99.90;;;;;;5071855;28;20437;-76
2023/03/16 03:21:50;;;;;;;6.20;4.70;;;1.00;99.90;;;;;;5072688;28;20470;-77
2023/03/16 03:24:17;;;;;;;5.53;4.77;;;1.00;99.90;;;;;;5072899;28;20456;-76
2023/03/16 03:26:44;;;;;;;8.37;6.87;;;0.90;99.90;;;;;;5072502;28;20445;-76
2023/03/16 03:29:12;;;;;;;7.67;4.97;;;0.90;99.90;;;;;;5071192;28;20451;-76
2023/03/16 03:31:39;;;;;;;7.70;5.30;;;1.10;99.90;;;;;;5071931;28;20496;-76
2023/03/16 03:34:06;;;;;;;7.50;6.00;;;1.20;99.90;;;;;;5071231;28;20942;-76
2023/03/16 03:36:33;;;;;;;7.33;5.87;;;1.00;99.90;;;;;;5059130;28;20435;-76
2023/03/16 03:39:04;;;;;;;7.90;4.87;;;0.90;99.90;;;;;;5070963;28;20450;-76
2023/03/16 03:41:32;;;;;;;7.53;5.47;;;0.70;99.90;;;;;;5059656;28;20441;-76
2023/03/16 03:43:59;;;;;;;6.40;4.50;;;1.00;99.90;;;;;;5071042;28;20851;-76
2023/03/16 03:46:26;;;;;;;8.10;4.77;;;0.90;99.90;;;;;;5072043;28;20473;-76
2023/03/16 03:48:53;;;;;;;5.77;4.77;;;0.70;99.90;;;;;;5070630;28;20451;-76
2023/03/16 03:51:20;;;;;;;6.50;4.57;;;0.80;99.90;;;;;;5071694;28;20945;-76
2023/03/16 03:53:47;;;;;;;8.00;5.13;;;0.90;99.90;;;;;;5072019;28;20442;-76
2023/03/16 03:56:15;;;;;;;6.70;5.37;;;1.10;99.90;;;;;;5071963;28;20854;-76
2023/03/16 03:58:42;;;;;;;14.57;5.43;;;0.80;99.90;;;;;;5071187;28;20452;-77
2023/03/16 04:01:09;;;;;;;12.13;6.50;;;0.70;99.90;;;;;;5071210;28;20725;-75
2023/03/16 04:03:35;;;;;;;8.10;5.10;;;0.80;99.90;;;;;;5071667;28;20452;-77
2023/03/16 04:06:02;;;;;;;11.30;5.50;;;1.10;99.90;;;;;;5071100;28;20441;-76
2023/03/16 04:08:29;;;;;;;6.77;4.73;;;1.10;99.90;;;;;;5070712;28;20445;-77
2023/03/16 04:10:56;;;;;;;12.33;7.27;;;1.20;99.90;;;;;;5070875;28;20447;-76
2023/03/16 04:13:24;;;;;;;7.30;5.97;;;1.10;99.90;;;;;;5071337;28;20445;-76
2023/03/16 04:15:56;;;;;;;10.83;6.03;;;0.90;99.90;;;;;;5070980;28;20502;-76
2023/03/16 04:18:23;;;;;;;4.57;4.13;;;0.80;99.90;;;;;;5071153;28;20437;-77
2023/03/16 04:20:51;;;;;;;6.50;5.10;;;0.80;99.90;;;;;;5070985;28;20444;-74
2023/03/16 04:23:18;;;;;;;9.13;5.20;;;0.90;99.90;;;;;;5071664;28;20476;-76
2023/03/16 04:25:45;;;;;;;9.00;5.50;;;0.70;99.90;;;;;;5071354;28;20919;-76
2023/03/16 04:28:12;;;;;;;4.70;4.30;;;0.70;99.90;;;;;;5070503;28;20530;-76
2023/03/16 04:30:41;;;;;;;5.60;4.30;;;0.70;99.90;;;;;;5071212;28;20457;-77
2023/03/16 04:33:08;;;;;;;5.90;3.57;;;0.70;99.90;;;;;;5070891;28;20445;-76
2023/03/16 04:35:35;;;;;;;4.70;4.10;;;0.80;99.90;;;;;;5071512;28;20475;-76
2023/03/16 04:38:02;;;;;;;7.67;4.80;;;0.90;99.90;;;;;;5070226;28;20445;-77
2023/03/16 04:40:29;;;;;;;6.20;4.20;;;0.90;99.90;;;;;;5071520;28;20856;-77
2023/03/16 04:42:56;;;;;;;7.60;5.53;;;1.20;99.90;;;;;;5070628;28;20769;-77
2023/03/16 04:45:23;;;;;;;10.23;6.30;;;1.00;99.90;;;;;;5070783;28;20468;-76
2023/03/16 04:47:51;;;;;;;7.50;5.67;;;1.10;99.90;;;;;;5069894;28;20498;-73
2023/03/16 04:50:18;;;;;;;9.13;5.53;;;1.10;99.90;;;;;;5071507;28;20761;-76
2023/03/16 04:52:44;;;;;;;7.47;5.83;;;0.90;99.90;;;;;;5071027;28;20449;-76
2023/03/16 04:55:11;;;;;;;5.90;5.17;;;1.00;99.90;;;;;;5070221;28;20480;-76
2023/03/16 04:57:38;;;;;;;6.63;4.23;;;0.80;99.90;;;;;;5070945;28;20505;-76
2023/03/16 05:00:10;;;;;;;8.70;6.87;;;0.70;99.90;;;;;;5070056;28;20443;-76
2023/03/16 05:02:37;;;;;;;6.40;4.63;;;0.60;99.90;;;;;;5071179;28;20456;-76
2023/03/16 05:05:06;;;;;;;8.30;4.97;;;1.10;99.90;;;;;;5070359;28;20448;-76
2023/03/16 05:07:33;;;;;;;9.00;5.27;;;1.20;99.90;;;;;;5070786;28;20947;-76
2023/03/16 05:09:59;;;;;;;5.87;4.93;;;1.50;99.90;;;;;;5070045;28;20539;-77
2023/03/16 05:12:27;;;;;;;6.30;4.87;;;1.40;99.90;;;;;;5071074;28;20444;-76
2023/03/16 05:14:53;;;;;;;7.23;5.10;;;1.40;99.90;;;;;;5070105;28;20481;-75
2023/03/16 05:17:21;;;;;;;7.47;5.70;;;1.20;99.90;;;;;;5070951;28;20787;-76
2023/03/16 05:19:47;;;;;;;4.30;3.90;;;1.30;99.90;;;;;;5070421;28;20476;-76
2023/03/16 05:22:16;;;;;;;5.57;4.40;;;1.40;99.90;;;;;;5074748;28;20782;-76
2023/03/16 05:24:42;;;;;;;7.47;4.63;;;1.30;99.90;;;;;;5074749;28;20459;-76
2023/03/16 05:27:09;;;;;;;12.43;4.40;;;1.00;99.90;;;;;;5074154;28;20452;-75
2023/03/16 05:29:36;;;;;;;5.17;4.00;;;1.20;99.90;;;;;;5074074;28;20452;-76
2023/03/16 05:32:03;;;;;;;8.23;5.23;;;1.30;99.90;;;;;;5074191;28;20438;-76
2023/03/16 05:34:30;;;;;;;7.50;5.40;;;1.20;99.90;;;;;;5074605;28;20509;-75
2023/03/16 05:36:57;;;;;;;10.07;6.30;;;1.80;99.90;;;;;;5073884;28;20484;-75
2023/03/16 05:39:25;;;;;;;7.03;5.27;;;1.90;99.90;;;;;;5073760;28;20449;-75
2023/03/16 05:41:53;;;;;;;9.00;4.40;;;1.50;99.90;;;;;;5074012;28;20529;-75
2023/03/16 05:44:20;;;;;;;9.93;7.00;;;1.20;99.90;;;;;;5074243;28;20456;-75
2023/03/16 05:46:47;;;;;;;8.03;5.90;;;1.50;99.90;;;;;;5074262;28;20484;-76
2023/03/16 05:49:14;;;;;;;8.43;4.90;;;1.30;99.90;;;;;;5073893;28;20447;-76
2023/03/16 05:51:41;;;;;;;7.60;5.93;;;1.10;99.90;;;;;;5074393;28;20470;-76
2023/03/16 05:54:08;;;;;;;5.17;4.67;;;1.30;99.90;;;;;;5073713;28;20438;-75
2023/03/16 05:56:37;;;;;;;12.20;5.53;;;1.00;99.90;;;;;;5074054;28;20814;-77
2023/03/16 05:59:04;;;;;;;11.67;6.77;;;0.90;99.90;;;;;;5073054;28;20459;-77
2023/03/16 06:01:32;;;;;;;7.13;4.57;;;1.20;99.90;;;;;;5074223;28;20440;-77
2023/03/16 06:04:00;;;;;;;5.97;4.43;;;1.40;99.90;;;;;;5073410;28;20458;-77
2023/03/16 06:06:26;;;;;;;5.63;4.47;;;1.30;99.90;;;;;;5074151;28;20449;-77
2023/03/16 06:08:53;;;;;;;7.30;5.50;;;1.10;99.90;;;;;;5072526;28;20446;-77
2023/03/16 06:11:20;;;;;;;7.80;5.23;;;1.50;99.90;;;;;;5073993;28;20441;-75
2023/03/16 06:13:48;;;;;;;4.80;4.10;;;1.40;99.90;;;;;;5060530;28;20456;-77
2023/03/16 06:16:15;;;;;;;10.93;5.33;;;1.40;99.90;;;;;;5073856;28;20819;-76
2023/03/16 06:18:42;;;;;;;5.10;4.00;;;1.60;99.90;;;;;;5073436;28;20452;-77
2023/03/16 06:21:09;;;;;;;14.57;4.50;;;1.50;99.90;;;;;;5073126;28;20454;-76
2023/03/16 06:23:36;;;;;;;11.37;5.90;;;1.60;99.90;;;;;;5073422;28;20434;-77
2023/03/16 06:26:03;;;;;;;6.53;4.90;;;1.70;99.90;;;;;;5072948;28;20464;-77
2023/03/16 06:28:30;;;;;;;8.80;5.23;;;1.70;99.90;;;;;;5073265;28;20453;-75
2023/03/16 06:30:59;;;;;;;6.13;4.50;;;1.90;99.90;;;;;;5072381;28;20442;-75
2023/03/16 06:33:26;;;;;;;10.43;5.23;;;1.70;99.90;;;;;;5073455;28;20437;-76
2023/03/16 06:35:53;;;;;;;9.70;4.97;;;1.60;99.90;;;;;;5072698;28;20542;-75
2023/03/16 06:38:20;;;;;;;5.90;5.20;;;1.60;99.90;;;;;;5072782;28;20929;-73
2023/03/16 06:40:51;;;;;;;5.13;4.53;;;1.70;99.90;;;;;;5073661;28;20448;-75
2023/03/16 06:43:18;;;;;;;6.67;5.63;;;1.50;99.90;;;;;;5073246;28;20438;-76
2023/03/16 06:45:45;;;;;;;8.80;4.93;;;1.30;99.90;;;;;;5073015;28;20502;-76
2023/03/16 06:48:13;;;;;;;7.30;5.33;;;1.40;99.90;;;;;;5072278;28;20798;-75
2023/03/16 06:50:40;;;;;;;5.47;4.90;;;1.60;99.90;;;;;;5073214;28;20449;-76
2023/03/16 06:53:07;;;;;;;6.07;4.97;;;1.80;99.90;;;;;;5072285;28;20460;-76
2023/03/16 06:55:33;;;;;;;5.87;5.27;;;1.90;99.90;;;;;;5072832;28;20481;-77
2023/03/16 06:58:00;;;;;;;6.87;4.70;;;1.90;99.90;;;;;;5072250;28;20795;-76
2023/03/16 07:00:27;;;;;;;7.43;5.10;;;1.70;99.90;;;;;;5072667;28;20787;-76
2023/03/16 07:02:54;;;;;;;10.23;6.03;;;1.70;99.90;;;;;;5071656;28;20445;-74
2023/03/16 07:05:22;;;;;;;4.30;3.53;;;1.90;99.90;;;;;;5072585;28;20760;-75
2023/03/16 07:07:49;;;;;;;11.10;6.33;;;1.90;99.90;;;;;;5072437;28;20449;-73
2023/03/16 07:10:18;;;;;;;6.87;4.07;;;2.00;99.90;;;;;;5072839;28;20438;-76
2023/03/16 07:12:45;;;;;;;8.77;4.17;;;2.00;99.90;;;;;;5072968;28;20437;-76
2023/03/16 07:15:12;;;;;;;10.47;5.53;;;2.00;99.90;;;;;;5071956;28;20449;-76
2023/03/16 07:17:41;;;;;;;7.37;5.17;;;2.10;99.90;;;;;;5072285;28;20479;-75
2023/03/16 07:20:11;;;;;;;6.20;4.23;;;2.10;99.90;;;;;;5072028;28;20437;-75
2023/03/16 07:22:40;;;;;;;6.53;5.30;;;2.10;99.90;;;;;;5072409;28;20909;-76
2023/03/16 07:25:08;;;;;;;11.00;4.77;;;2.20;99.90;;;;;;5071969;28;20442;-76
2023/03/16 07:27:35;;;;;;;9.73;5.60;;;2.30;99.90;;;;;;5072161;28;20437;-75
2023/03/16 07:30:03;;;;;;;6.93;5.40;;;2.30;99.90;;;;;;5058609;28;20445;-76
2023/03/16 07:32:31;;;;;;;6.30;4.87;;;2.40;99.90;;;;;;5072354;28;20502;-76
2023/03/16 07:34:58;;;;;;;9.33;5.60;;;2.50;99.90;;;;;;5072036;28;20445;-76
2023/03/16 07:37:25;;;;;;;8.63;5.20;;;2.50;99.90;;;;;;5071629;28;20481;-74
2023/03/16 07:39:53;;;;;;;7.57;5.97;;;2.70;99.90;;;;;;5071787;28;20441;-75
2023/03/16 07:42:21;;;;;;;12.87;5.57;;;2.80;99.90;;;;;;5072111;28;20444;-74
2023/03/16 07:44:48;;;;;;;13.17;6.60;;;2.80;99.90;;;;;;5071357;28;20441;-75
2023/03/16 07:47:15;;;;;;;10.40;5.40;;;3.10;99.90;;;;;;5072182;28;20434;-75
2023/03/16 07:49:43;;;;;;;8.17;4.90;;;3.10;99.90;;;;;;5071844;28;20446;-75
2023/03/16 07:52:12;;;;;;;8.73;5.27;;;3.10;99.90;;;;;;5071487;28;20476;-75
2023/03/16 07:54:39;;;;;;;8.93;5.40;;;3.20;99.90;;;;;;5072114;28;20445;-76
2023/03/16 07:57:08;;;;;;;7.23;6.00;;;3.30;99.90;;;;;;5070993;28;20480;-75
2023/03/16 07:59:35;;;;;;;8.20;4.00;;;3.40;30.10;;;;;;5071411;28;20440;-75
2023/03/16 08:02:02;;;;;;;11.60;6.07;;;3.50;20.30;;;;;;5071225;28;20441;-75
2023/03/16 08:04:30;;;;;;;9.07;4.80;;;3.60;28.30;;;;;;5071963;28;20994;-74
2023/03/16 08:06:59;;;;;;;11.90;6.67;;;3.80;1.00;;;;;;5071179;28;20455;-75
2023/03/16 08:09:25;;;;;;;7.67;5.30;;;3.90;1.00;;;;;;5071326;28;20441;-75
2023/03/16 08:11:52;;;;;;;8.63;4.73;;;4.00;99.90;;;;;;5071131;28;20457;-75
2023/03/16 08:14:21;;;;;;;9.37;5.30;;;3.90;1.00;;;;;;5071876;28;20446;-75
2023/03/16 08:16:48;;;;;;;8.97;4.73;;;4.10;99.90;;;;;;5071708;28;20526;-75
2023/03/16 08:19:16;;;;;;;4.53;3.77;;;4.20;99.90;;;;;;5071716;28;20775;-75
2023/03/16 08:21:43;;;;;;;8.87;5.40;;;4.20;99.90;;;;;;5071532;28;20561;-76
2023/03/16 08:24:09;;;;;;;5.40;3.43;;;4.20;99.90;;;;;;5070730;28;20441;-75
2023/03/16 08:26:36;;;;;;;4.33;3.70;;;4.40;7.90;;;;;;5071545;28;20815;-75
2023/03/16 08:29:03;;;;;;;11.87;4.70;;;4.50;1.00;;;;;;5070604;28;20441;-75
2023/03/16 08:31:33;;;;;;;11.17;5.33;;;4.50;1.00;;;;;;5071213;28;20445;-75
2023/03/16 08:34:01;;;;;;;6.17;4.97;;;4.70;1.00;;;;;;5070562;28;20445;-75
2023/03/16 08:36:29;;;;;;;5.80;4.80;;;4.70;99.90;;;;;;5071276;28;20484;-75
2023/03/16 08:38:56;;;;;;;5.20;3.50;;;4.70;99.90;;;;;;5070233;28;20532;-74
2023/03/16 08:41:22;;;;;;;5.60;3.87;;;4.90;99.20;;;;;;5071528;28;20437;-75
2023/03/16 08:43:49;;;;;;;7.43;4.33;;;5.10;99.90;;;;;;5070614;28;20453;-72
2023/03/16 08:46:16;;;;;;;4.20;2.57;;;5.10;99.90;;;;;;5057923;28;20470;-75
2023/03/16 08:48:44;;;;;;;6.57;3.60;;;5.20;99.90;;;;;;5070928;28;20448;-74
2023/03/16 08:51:11;;;;;;;5.03;2.80;;;5.30;35.60;;;;;;5057281;28;20924;-75
2023/03/16 08:53:38;;;;;;;7.83;4.80;;;5.40;15.80;;;;;;5070892;28;20437;-74
2023/03/16 08:56:06;;;;;;;5.83;3.10;;;5.50;1.00;;;;;;5073805;28;20979;-75
2023/03/16 08:58:33;;;;;;;4.40;2.97;;;5.50;1.00;;;;;;5074582;28;20432;-76
2023/03/16 09:01:00;;;;;;;4.90;3.70;;;5.60;99.90;;;;;;5074754;28;20447;-75
2023/03/16 09:03:28;;;;;;;4.93;3.57;;;;;;;;;;5075299;28;20447;-75
2023/03/16 09:06:01;;;;;;;4.70;2.73;;;;;;;;;;5074449;28;20448;-75
2023/03/16 09:08:28;;;;;;;4.43;2.83;;;;;;;;;;5074550;28;20467;-75
2023/03/16 09:11:00;;;;;;;4.20;3.13;;;;;;;;;;5074789;28;20441;-75
2023/03/16 09:13:27;;;;;;;3.30;2.67;;;;;;;;;;5075118;28;20437;-75
2023/03/16 09:15:55;;;;;;;4.60;3.33;;;;;;;;;;5074351;28;20514;-76
2023/03/16 09:18:23;;;;;;;4.60;2.47;;;;;;;;;;5074527;28;20487;-75
2023/03/16 09:20:50;;;;;;;4.57;2.83;;;;;;;;;;5074446;28;20924;-73
2023/03/16 09:23:19;;;;;;;3.47;2.40;;;;;;;;;;5075052;28;20441;-75
2023/03/16 09:25:46;;;;;;;3.63;3.23;;;;;;;;;;5075156;28;20449;-76
2023/03/16 09:28:14;;;;;;;3.50;2.30;;;;;;;;;;5073891;28;20445;-76
2023/03/16 09:30:41;;;;;;;6.10;3.00;;;;;;;;;;5074734;28;20857;-76
2023/03/16 09:33:08;;;;;;;2.93;2.33;;;;;;;;;;5074230;28;20437;-75
2023/03/16 09:35:36;;;;;;;4.30;2.63;;;;;;;;;;5074888;28;20441;-75
2023/03/16 09:38:04;;;;;;;6.70;3.40;;;;;;;;;;5073588;28;20480;-76
2023/03/16 09:40:32;;;;;;;3.87;3.20;;;;;;;;;;5074468;28;20443;-76
2023/03/16 09:43:05;;;;;;;3.00;2.50;;;;;;;;;;5073976;28;20438;-76
2023/03/16 09:45:34;;;;;;;5.67;2.30;;;;;;;;;;5074172;28;20473;-76
2023/03/16 09:48:02;;;;;;;4.70;3.20;;;;;;;;;;5073729;28;20449;-75
2023/03/16 09:50:32;;;;;;;13.53;3.50;;;;;;;;;;5074234;28;20433;-76
2023/03/16 09:53:03;;;;;;;7.07;2.43;;;;;;;;;;5074194;28;20532;-76
2023/03/16 09:55:32;;;;;;;4.20;2.47;;;;;;;;;;5074454;28;20437;-75
2023/03/16 09:58:01;;;;;;;3.90;2.90;;;;;;;;;;5073317;28;20567;-76
2023/03/16 10:00:30;;;;;;;5.50;3.33;;;;;;;;;;5074161;28;20444;-76
2023/03/16 10:03:05;;;;;;;3.53;2.90;;;;;;;;;;5073682;28;20464;-75
2023/03/16 10:05:33;;;;;;;4.63;2.70;;;;;;;;;;5074170;28;20433;-75
2023/03/16 10:08:07;;;;;;;3.70;1.97;;;;;;;;;;5072152;28;20445;-76
2023/03/16 10:10:43;;;;;;;3.83;2.60;;;;;;;;;;5074220;28;20849;-76
2023/03/16 10:13:17;;;;;;;4.07;2.73;;;;;;;;;;5073078;28;20495;-76
2023/03/16 10:15:47;;;;;;;3.97;2.30;;;;;;;;;;5074049;28;20475;-75
2023/03/16 10:18:16;;;;;;;2.70;2.00;;;;;;;;;;5073092;28;20560;-75
2023/03/16 10:20:44;;;;;;;3.40;2.37;;;;;;;;;;5074020;28;20438;-75
2023/03/16 10:23:17;;;;;;;5.70;4.03;;;;;;;;;;5073066;28;20553;-75
2023/03/16 10:25:45;;;;;;;3.43;2.30;;;;;;;;;;5073673;28;20483;-74
2023/03/16 10:28:16;;;;;;;3.80;2.00;;;;;;;;;;5072866;28;20801;-75
2023/03/16 10:30:43;;;;;;;3.20;2.90;;;;;;;;;;5073748;28;20434;-75
2023/03/16 10:33:17;;;;;;;4.10;2.67;;;;;;;;;;5072873;28;20456;-75
2023/03/16 10:35:47;;;;;;;4.50;2.50;;;;;;;;;;5073594;28;20429;-73
2023/03/16 10:38:27;;;;;;;15.07;2.90;;;;;;;;;;5072311;28;20483;-75
2023/03/16 10:40:56;;;;;;;3.27;2.37;;;;;;;;;;5073114;28;20440;-75
2023/03/16 10:43:25;;;;;;;6.97;2.90;;;;;;;;;;5073508;28;20536;-75
2023/03/16 10:45:53;;;;;;;3.33;2.43;;;;;;;;;;5072614;28;20465;-74
2023/03/16 10:48:22;;;;;;;3.33;2.10;;;;;;;;;;5073043;28;20542;-74
2023/03/16 10:50:50;;;;;;;4.10;2.93;;;;;;;;;;5073262;28;20480;-75
2023/03/16 10:53:20;;;;;;;3.50;2.13;;;;;;;;;;5073672;28;20446;-75
2023/03/16 10:55:49;;;;;;;2.40;2.17;;;;;;;;;;5073417;28;20442;-75
2023/03/16 10:58:25;;;;;;;3.70;2.00;;;;;;;;;;5073000;28;20873;-75
2023/03/16 11:00:52;;;;;;;5.10;2.57;;;;;;;;;;5072166;28;20480;-75
2023/03/16 11:03:22;;;;;;;2.73;2.30;;;;;;;;;;5073139;28;20520;-73
2023/03/16 11:05:57;;;;;;;2.60;2.23;;;;;;;;;;5073056;28;20441;-71
2023/03/16 11:08:26;;;;;;;3.10;2.07;;;;;;;;;;5072697;28;20445;-75
2023/03/16 11:10:57;;;;;;;3.37;1.70;;;;;;;;;;5072556;28;20902;-74
2023/03/16 11:13:29;;;;;;;3.10;2.00;;;;;;;;;;5072449;28;20491;-74
2023/03/16 11:15:57;;;;;;;2.40;1.90;;;;;;;;;;5071893;28;20913;-74
2023/03/16 11:18:30;;;;;;;2.73;2.03;;;;;;;;;;5072036;28;20983;-78
2023/03/16 11:20:59;;;;;;;2.77;1.53;;;;;;;;;;5072321;28;20433;-75
2023/03/16 11:23:30;;;;;;;3.00;2.13;;;;;;;;;;5072643;28;20507;-75
2023/03/16 11:25:59;;;;;;;2.50;1.90;;;;;;;;;;5071934;28;20495;-75
2023/03/16 11:28:33;;;;;;;1.80;1.63;;;;;;;;;;5072602;28;20524;-75
2023/03/16 11:31:07;;;;;;;1.87;1.53;;;;;;;;;;5071872;28;20438;-75
2023/03/16 11:33:34;;;;;;;2.50;1.60;;;;;;;;;;5072564;28;20437;-75
2023/03/16 11:36:07;;;;;;;2.27;1.63;;;;;;;;;;5071879;28;20449;-75
2023/03/16 11:38:36;;;;;;;2.10;1.67;;;;;;;;;;5072029;28;20564;-75
2023/03/16 11:41:08;;;;;;;4.83;1.53;;;;;;;;;;5071422;28;20449;-75
2023/03/16 11:43:52;;;;;;;1.47;1.13;;;;;;;;;;5072456;28;20473;-75
2023/03/16 11:46:23;;;;;;;3.20;2.00;;;;;;;;;;5059021;28;20473;-74
2023/03/16 11:48:53;;;;;;;2.30;1.43;;;;;;;;;;5071126;28;20441;-73
2023/03/16 11:51:26;;;;;;;2.90;1.50;;;;;;;;;;5072014;28;20907;-74
2023/03/16 11:54:01;;;;;;;1.87;1.37;;;;;;;;;;5071805;28;20438;-75
2023/03/16 11:56:34;;;;;;;2.30;1.40;;;;;;;;;;5072235;28;20456;-75
2023/03/16 11:59:16;;;;;;;3.17;1.57;;;;;;;;;;5071161;28;20448;-75
2023/03/16 12:01:55;;;;;;;1.83;1.37;;;;;;;;;;5059258;28;20448;-75
2023/03/16 12:04:38;;;;;;;4.00;1.90;;;;;;;;;;5071950;28;20426;-74
2023/03/16 12:07:14;;;;;;;3.70;2.63;;;;;;;;;;5070608;28;20437;-75
2023/03/16 12:09:53;;;;;;;1.67;1.57;;;;;;;;;;5072150;28;20445;-75
2023/03/16 12:12:28;;;;;;;2.50;1.70;;;;;;;;;;5071741;28;20433;-73
2023/03/16 12:15:04;;;;;;;1.97;1.70;;;;;;;;;;5071120;28;20774;-75
2023/03/16 12:17:34;;;;;;;2.30;1.63;;;;;;;;;;5071454;28;20475;-75
2023/03/16 12:20:06;;;;;;;2.30;2.03;;;;;;;;;;5071294;28;20444;-75
2023/03/16 12:22:36;;;;;;;1.90;1.73;;;;;;;;;;5071829;28;20440;-75
2023/03/16 12:25:04;;;;;;;2.90;1.40;;;;;;;;;;5071375;28;20528;-74
2023/03/16 12:27:33;;;;;;;3.93;1.90;;;;;;;;;;5070943;28;20459;-75
2023/03/16 12:30:04;;;;;;;2.37;1.83;;;;;;;;;;5070341;28;20452;-73
2023/03/16 12:32:39;;;;;;;1.77;1.60;;;;;;;;;;5071170;28;20437;-75
2023/03/16 12:35:18;;;;;;;2.30;1.60;;;;;;;;;;5071029;28;20540;-75
2023/03/16 12:37:48;;;;;;;1.87;1.60;;;;;;;;;;5071227;28;20797;-75
2023/03/16 12:40:23;;;;;;;3.80;2.10;;;;;;;;;;5071418;28;20452;-75
2023/03/16 12:42:56;;;;;;;1.80;1.43;;;;;;;;;;5070812;28;20437;-72
2023/03/16 12:45:28;;;;;;;3.23;1.50;;;;;;;;;;5071388;28;20473;-74
2023/03/16 12:47:59;;;;;;;3.80;2.00;;;;;;;;;;5070640;28;20441;-75
2023/03/16 12:50:26;;;;;;;2.47;1.30;;;;;;;;;;5071373;28;20444;-74
2023/03/16 12:52:54;;;;;;;1.67;1.10;;;;;;;;;;5070936;28;20446;-75
2023/03/16 12:55:26;;;;;;;2.10;1.57;;;;;;;;;;5071277;28;20437;-75
2023/03/16 12:57:59;;;;;;;1.70;1.37;;;;;;;;;;5070146;28;20974;-75
2023/03/16 13:00:34;;;;;;;2.00;1.40;;;;;;;;;;5070830;28;20429;-75
2023/03/16 13:03:03;;;;;;;1.47;1.37;;;;;;;;;;5070460;28;20989;-75
2023/03/16 13:05:31;;;;;;;2.63;1.80;;;;;;;;;;5071186;28;20787;-75
2023/03/16 13:08:10;;;;;;;2.50;1.67;;;;;;;;;;5070100;28;20442;-75
2023/03/16 13:10:37;;;;;;;2.20;1.60;;;;;;;;;;5071018;28;20440;-74
2023/03/16 13:13:10;;;;;;;5.43;1.83;;;;;;;;;;5070507;28;20446;-73
2023/03/16 13:15:38;;;;;;;2.00;1.43;;;;;;;;;;5071056;28;20546;-75
2023/03/16 13:18:24;;;;;;;2.23;1.40;;;;;;;;;;5070067;28;20476;-75
2023/03/16 13:20:54;;;;;;;1.60;1.40;;;;;;;;;;5070821;28;20753;-74
2023/03/16 13:23:22;;;;;;;1.23;1.10;;;;;;;;;;5070783;28;20473;-74
2023/03/16 13:26:00;;;;;;;3.20;1.20;;;;;;;;;;5071006;28;20446;-71
2023/03/16 13:28:29;;;;;;;2.57;1.40;;;;;;;;;;5070378;28;20445;-75
2023/03/16 13:30:56;;;;;;;2.37;1.53;;;;;;;;;;5070333;28;20440;-74
2023/03/16 13:33:25;;;;;;;1.67;1.57;;;;;;;;;;5070910;28;20798;-74
2023/03/16 13:35:54;;;;;;;2.10;1.50;;;;;;;;;;5069915;28;20798;-74
2023/03/16 13:38:26;;;;;;;2.30;1.23;;;;;;;;;;5070421;28;20481;-74